sensor_id;sensor_type;location;lat;lon;timestamp;temperature;humidity
18581;DHT22;9420;50.876;7.012;2023-10-09T00:00:14;14.53;85.27
18581;DHT22;9420;50.876;7.012;2023-10-09T00:02:55;14.54;85.23
18581;DHT22;9420;50.876;7.012;2023-10-09T00:05:23;14.56;85.17
18581;DHT22;9420;50.876;7.012;2023-10-09T00:07:53;14.60;85.27
18581;DHT22;9420;50.876;7.012;2023-10-09T00:10:21;14.53;85.45
18581;DHT22;9420;50.876;7.012;2023-10-09T00:12:49;14.54;85.50
18581;DHT22;9420;50.876;7.012;2023-10-09T00:15:18;14.54;85.60
18581;DHT22;9420;50.876;7.012;2023-10-09T00:17:46;14.56;85.33
18581;DHT22;9420;50.876;7.012;2023-10-09T00:20:14;14.61;85.26
18581;DHT22;9420;50.876;7.012;2023-10-09T00:23:00;14.37;85.76
18581;DHT22;9420;50.876;7.012;2023-10-09T00:25:27;14.48;85.75
18581;DHT22;9420;50.876;7.012;2023-10-09T00:27:55;14.43;85.69
18581;DHT22;9420;50.876;7.012;2023-10-09T00:30:26;14.51;85.68
18581;DHT22;9420;50.876;7.012;2023-10-09T00:32:55;14.44;85.40
18581;DHT22;9420;50.876;7.012;2023-10-09T00:35:29;14.51;85.96
18581;DHT22;9420;50.876;7.012;2023-10-09T00:38:03;14.36;85.59
18581;DHT22;9420;50.876;7.012;2023-10-09T00:40:40;14.44;85.48
18581;DHT22;9420;50.876;7.012;2023-10-09T00:43:11;14.37;85.40
18581;DHT22;9420;50.876;7.012;2023-10-09T00:45:40;14.56;85.52
18581;DHT22;9420;50.876;7.012;2023-10-09T00:48:09;14.50;85.26
18581;DHT22;9420;50.876;7.012;2023-10-09T00:50:39;14.38;85.18
18581;DHT22;9420;50.876;7.012;2023-10-09T00:53:13;14.33;85.24
18581;DHT22;9420;50.876;7.012;2023-10-09T00:55:44;14.30;85.38
18581;DHT22;9420;50.876;7.012;2023-10-09T00:58:16;14.36;85.33
18581;DHT22;9420;50.876;7.012;2023-10-09T01:00:50;14.32;85.15
18581;DHT22;9420;50.876;7.012;2023-10-09T01:03:18;14.14;85.40
18581;DHT22;9420;50.876;7.012;2023-10-09T01:05:47;14.23;85.06
18581;DHT22;9420;50.876;7.012;2023-10-09T01:08:22;14.06;85.19
18581;DHT22;9420;50.876;7.012;2023-10-09T01:10:55;14.05;85.31
18581;DHT22;9420;50.876;7.012;2023-10-09T01:13:24;13.99;85.35
18581;DHT22;9420;50.876;7.012;2023-10-09T01:16:06;13.90;85.37
18581;DHT22;9420;50.876;7.012;2023-10-09T01:18:38;13.98;85.18
18581;DHT22;9420;50.876;7.012;2023-10-09T01:21:08;13.89;85.14
18581;DHT22;9420;50.876;7.012;2023-10-09T01:23:40;13.93;85.12
18581;DHT22;9420;50.876;7.012;2023-10-09T01:26:24;13.83;85.33
18581;DHT22;9420;50.876;7.012;2023-10-09T01:28:50;13.75;85.43
18581;DHT22;9420;50.876;7.012;2023-10-09T01:31:23;13.83;85.22
18581;DHT22;9420;50.876;7.012;2023-10-09T01:33:51;13.83;85.43
18581;DHT22;9420;50.876;7.012;2023-10-09T01:36:18;13.89;85.18
18581;DHT22;9420;50.876;7.012;2023-10-09T01:38:59;13.93;85.01
18581;DHT22;9420;50.876;7.012;2023-10-09T01:41:25;13.72;84.73
18581;DHT22;9420;50.876;7.012;2023-10-09T01:43:53;13.62;84.97
18581;DHT22;9420;50.876;7.012;2023-10-09T01:46:26;13.71;85.00
18581;DHT22;9420;50.876;7.012;2023-10-09T01:48:52;13.74;84.92
18581;DHT22;9420;50.876;7.012;2023-10-09T01:51:20;13.69;84.92
18581;DHT22;9420;50.876;7.012;2023-10-09T01:53:46;13.71;85.32
18581;DHT22;9420;50.876;7.012;2023-10-09T01:56:21;13.79;85.24
18581;DHT22;9420;50.876;7.012;2023-10-09T01:58:48;13.68;85.78
18581;DHT22;9420;50.876;7.012;2023-10-09T02:01:15;13.92;85.88
18581;DHT22;9420;50.876;7.012;2023-10-09T02:03:42;13.81;85.12
18581;DHT22;9420;50.876;7.012;2023-10-09T02:06:10;13.79;85.53
18581;DHT22;9420;50.876;7.012;2023-10-09T02:08:55;13.82;85.64
18581;DHT22;9420;50.876;7.012;2023-10-09T02:11:23;13.78;85.68
18581;DHT22;9420;50.876;7.012;2023-10-09T02:14:04;13.82;85.55
18581;DHT22;9420;50.876;7.012;2023-10-09T02:16:44;13.89;85.40
18581;DHT22;9420;50.876;7.012;2023-10-09T02:19:28;13.90;85.39
18581;DHT22;9420;50.876;7.012;2023-10-09T02:21:57;13.96;85.29
18581;DHT22;9420;50.876;7.012;2023-10-09T02:24:24;13.95;85.41
18581;DHT22;9420;50.876;7.012;2023-10-09T02:27:09;13.93;85.63
18581;DHT22;9420;50.876;7.012;2023-10-09T02:29:36;13.93;85.66
18581;DHT22;9420;50.876;7.012;2023-10-09T02:32:04;14.09;85.62
18581;DHT22;9420;50.876;7.012;2023-10-09T02:34:39;14.02;85.65
18581;DHT22;9420;50.876;7.012;2023-10-09T02:37:05;13.95;85.84
18581;DHT22;9420;50.876;7.012;2023-10-09T02:39:36;13.93;85.79
18581;DHT22;9420;50.876;7.012;2023-10-09T02:42:10;14.02;85.78
18581;DHT22;9420;50.876;7.012;2023-10-09T02:44:49;14.03;85.63
18581;DHT22;9420;50.876;7.012;2023-10-09T02:47:17;14.03;85.65
18581;DHT22;9420;50.876;7.012;2023-10-09T02:49:46;14.13;85.58
18581;DHT22;9420;50.876;7.012;2023-10-09T02:52:15;14.09;85.38
18581;DHT22;9420;50.876;7.012;2023-10-09T02:54:44;13.99;85.83
18581;DHT22;9420;50.876;7.012;2023-10-09T02:57:13;13.96;86.07
18581;DHT22;9420;50.876;7.012;2023-10-09T02:59:47;14.02;85.99
18581;DHT22;9420;50.876;7.012;2023-10-09T03:02:17;14.02;85.73
18581;DHT22;9420;50.876;7.012;2023-10-09T03:04:43;14.02;85.89
18581;DHT22;9420;50.876;7.012;2023-10-09T03:07:10;14.01;85.65
18581;DHT22;9420;50.876;7.012;2023-10-09T03:09:39;13.96;85.76
18581;DHT22;9420;50.876;7.012;2023-10-09T03:12:06;13.95;86.06
18581;DHT22;9420;50.876;7.012;2023-10-09T03:14:37;13.99;86.04
18581;DHT22;9420;50.876;7.012;2023-10-09T03:17:05;14.01;85.96
18581;DHT22;9420;50.876;7.012;2023-10-09T03:19:32;14.03;85.72
18581;DHT22;9420;50.876;7.012;2023-10-09T03:22:02;14.08;85.65
18581;DHT22;9420;50.876;7.012;2023-10-09T03:24:29;14.13;85.67
18581;DHT22;9420;50.876;7.012;2023-10-09T03:26:57;14.12;85.68
18581;DHT22;9420;50.876;7.012;2023-10-09T03:29:24;14.08;85.77
18581;DHT22;9420;50.876;7.012;2023-10-09T03:31:54;14.06;85.82
18581;DHT22;9420;50.876;7.012;2023-10-09T03:34:21;13.98;85.95
18581;DHT22;9420;50.876;7.012;2023-10-09T03:36:49;13.98;86.21
18581;DHT22;9420;50.876;7.012;2023-10-09T03:39:25;13.93;86.03
18581;DHT22;9420;50.876;7.012;2023-10-09T03:41:59;13.92;86.18
18581;DHT22;9420;50.876;7.012;2023-10-09T03:44:30;13.93;86.22
18581;DHT22;9420;50.876;7.012;2023-10-09T03:47:00;14.08;85.94
18581;DHT22;9420;50.876;7.012;2023-10-09T03:49:28;14.06;85.79
18581;DHT22;9420;50.876;7.012;2023-10-09T03:51:55;14.02;85.91
18581;DHT22;9420;50.876;7.012;2023-10-09T03:54:21;13.96;86.00
18581;DHT22;9420;50.876;7.012;2023-10-09T03:56:49;13.95;86.06
18581;DHT22;9420;50.876;7.012;2023-10-09T03:59:16;14.02;86.04
18581;DHT22;9420;50.876;7.012;2023-10-09T04:01:45;14.01;86.09
18581;DHT22;9420;50.876;7.012;2023-10-09T04:04:15;14.01;85.96
18581;DHT22;9420;50.876;7.012;2023-10-09T04:06:41;13.96;86.12
18581;DHT22;9420;50.876;7.012;2023-10-09T04:09:09;13.99;86.03
18581;DHT22;9420;50.876;7.012;2023-10-09T04:11:55;13.96;86.16
18581;DHT22;9420;50.876;7.012;2023-10-09T04:14:39;13.98;86.32
18581;DHT22;9420;50.876;7.012;2023-10-09T04:17:14;13.95;86.00
18581;DHT22;9420;50.876;7.012;2023-10-09T04:19:56;13.85;86.41
18581;DHT22;9420;50.876;7.012;2023-10-09T04:22:36;13.86;86.30
18581;DHT22;9420;50.876;7.012;2023-10-09T04:25:05;13.92;86.23
18581;DHT22;9420;50.876;7.012;2023-10-09T04:27:32;13.93;86.04
18581;DHT22;9420;50.876;7.012;2023-10-09T04:30:02;13.92;86.19
18581;DHT22;9420;50.876;7.012;2023-10-09T04:32:32;13.93;86.26
18581;DHT22;9420;50.876;7.012;2023-10-09T04:35:01;13.99;86.21
18581;DHT22;9420;50.876;7.012;2023-10-09T04:37:41;13.99;86.39
18581;DHT22;9420;50.876;7.012;2023-10-09T04:40:11;13.93;86.68
18581;DHT22;9420;50.876;7.012;2023-10-09T04:42:39;14.02;86.36
18581;DHT22;9420;50.876;7.012;2023-10-09T04:45:12;14.03;86.44
18581;DHT22;9420;50.876;7.012;2023-10-09T04:48:01;14.03;86.57
18581;DHT22;9420;50.876;7.012;2023-10-09T04:50:33;14.02;86.58
18581;DHT22;9420;50.876;7.012;2023-10-09T04:53:23;14.03;86.47
18581;DHT22;9420;50.876;7.012;2023-10-09T04:55:50;14.10;86.43
18581;DHT22;9420;50.876;7.012;2023-10-09T04:58:29;14.03;86.53
18581;DHT22;9420;50.876;7.012;2023-10-09T05:00:58;14.10;86.45
18581;DHT22;9420;50.876;7.012;2023-10-09T05:03:38;14.16;86.29
18581;DHT22;9420;50.876;7.012;2023-10-09T05:06:12;14.09;86.38
18581;DHT22;9420;50.876;7.012;2023-10-09T05:09:09;14.17;86.49
18581;DHT22;9420;50.876;7.012;2023-10-09T05:11:34;14.16;86.42
18581;DHT22;9420;50.876;7.012;2023-10-09T05:14:19;14.14;86.52
18581;DHT22;9420;50.876;7.012;2023-10-09T05:16:52;14.29;86.25
18581;DHT22;9420;50.876;7.012;2023-10-09T05:19:26;14.24;86.35
18581;DHT22;9420;50.876;7.012;2023-10-09T05:22:09;14.20;86.57
18581;DHT22;9420;50.876;7.012;2023-10-09T05:24:42;14.19;86.56
18581;DHT22;9420;50.876;7.012;2023-10-09T05:27:12;14.05;86.92
18581;DHT22;9420;50.876;7.012;2023-10-09T05:29:44;14.20;86.22
18581;DHT22;9420;50.876;7.012;2023-10-09T05:32:25;14.44;85.79
18581;DHT22;9420;50.876;7.012;2023-10-09T05:34:55;14.85;84.63
18581;DHT22;9420;50.876;7.012;2023-10-09T05:37:42;15.16;83.30
18581;DHT22;9420;50.876;7.012;2023-10-09T05:40:12;15.50;82.38
18581;DHT22;9420;50.876;7.012;2023-10-09T05:42:48;15.80;81.43
18581;DHT22;9420;50.876;7.012;2023-10-09T05:45:26;16.00;80.61
18581;DHT22;9420;50.876;7.012;2023-10-09T05:48:10;16.05;80.35
18581;DHT22;9420;50.876;7.012;2023-10-09T05:50:54;15.93;80.78
18581;DHT22;9420;50.876;7.012;2023-10-09T05:53:39;15.98;80.43
18581;DHT22;9420;50.876;7.012;2023-10-09T05:56:19;16.05;80.20
18581;DHT22;9420;50.876;7.012;2023-10-09T05:59:08;16.05;80.37
18581;DHT22;9420;50.876;7.012;2023-10-09T06:01:52;16.12;79.80
18581;DHT22;9420;50.876;7.012;2023-10-09T06:04:36;16.18;79.81
18581;DHT22;9420;50.876;7.012;2023-10-09T06:07:19;16.25;79.23
18581;DHT22;9420;50.876;7.012;2023-10-09T06:09:51;16.14;79.83
18581;DHT22;9420;50.876;7.012;2023-10-09T06:12:19;16.15;79.66
18581;DHT22;9420;50.876;7.012;2023-10-09T06:15:15;16.21;79.45
18581;DHT22;9420;50.876;7.012;2023-10-09T06:17:45;16.22;79.25
18581;DHT22;9420;50.876;7.012;2023-10-09T06:20:16;16.41;78.84
18581;DHT22;9420;50.876;7.012;2023-10-09T06:23:00;16.35;79.36
18581;DHT22;9420;50.876;7.012;2023-10-09T06:25:42;16.51;78.22
18581;DHT22;9420;50.876;7.012;2023-10-09T06:28:17;16.51;78.21
18581;DHT22;9420;50.876;7.012;2023-10-09T06:30:44;16.33;80.05
18581;DHT22;9420;50.876;7.012;2023-10-09T06:33:12;16.14;81.21
18581;DHT22;9420;50.876;7.012;2023-10-09T06:35:54;16.01;82.09
18581;DHT22;9420;50.876;7.012;2023-10-09T06:38:20;15.98;82.65
18581;DHT22;9420;50.876;7.012;2023-10-09T06:41:00;15.94;82.13
18581;DHT22;9420;50.876;7.012;2023-10-09T06:44:00;15.91;82.60
18581;DHT22;9420;50.876;7.012;2023-10-09T06:46:31;15.86;82.80
18581;DHT22;9420;50.876;7.012;2023-10-09T06:49:09;15.91;82.60
18581;DHT22;9420;50.876;7.012;2023-10-09T06:52:02;15.83;83.06
18581;DHT22;9420;50.876;7.012;2023-10-09T06:54:41;15.78;82.96
18581;DHT22;9420;50.876;7.012;2023-10-09T06:57:18;15.93;82.86
18581;DHT22;9420;50.876;7.012;2023-10-09T06:59:58;15.97;82.90
18581;DHT22;9420;50.876;7.012;2023-10-09T07:02:39;16.04;82.55
18581;DHT22;9420;50.876;7.012;2023-10-09T07:05:12;16.07;81.86
18581;DHT22;9420;50.876;7.012;2023-10-09T07:07:43;16.14;82.21
18581;DHT22;9420;50.876;7.012;2023-10-09T07:10:20;16.15;82.49
18581;DHT22;9420;50.876;7.012;2023-10-09T07:13:00;16.02;83.43
18581;DHT22;9420;50.876;7.012;2023-10-09T07:15:27;16.15;82.97
18581;DHT22;9420;50.876;7.012;2023-10-09T07:18:11;16.09;84.31
18581;DHT22;9420;50.876;7.012;2023-10-09T07:20:50;16.18;83.67
18581;DHT22;9420;50.876;7.012;2023-10-09T07:23:25;16.28;82.77
18581;DHT22;9420;50.876;7.012;2023-10-09T07:26:04;16.26;84.07
18581;DHT22;9420;50.876;7.012;2023-10-09T07:29:03;16.36;82.77
18581;DHT22;9420;50.876;7.012;2023-10-09T07:31:46;16.48;83.19
18581;DHT22;9420;50.876;7.012;2023-10-09T07:34:12;16.52;83.34
18581;DHT22;9420;50.876;7.012;2023-10-09T07:36:57;16.60;82.88
18581;DHT22;9420;50.876;7.012;2023-10-09T07:39:30;16.66;81.02
18581;DHT22;9420;50.876;7.012;2023-10-09T07:42:01;16.80;80.96
18581;DHT22;9420;50.876;7.012;2023-10-09T07:44:41;16.99;81.25
18581;DHT22;9420;50.876;7.012;2023-10-09T07:47:18;17.15;80.82
18581;DHT22;9420;50.876;7.012;2023-10-09T07:49:48;17.41;80.36
18581;DHT22;9420;50.876;7.012;2023-10-09T07:52:18;17.55;80.98
18581;DHT22;9420;50.876;7.012;2023-10-09T07:54:48;17.54;81.05
18581;DHT22;9420;50.876;7.012;2023-10-09T07:57:27;17.55;80.36
18581;DHT22;9420;50.876;7.012;2023-10-09T07:59:55;17.55;79.88
18581;DHT22;9420;50.876;7.012;2023-10-09T08:02:37;17.49;80.26
18581;DHT22;9420;50.876;7.012;2023-10-09T08:05:04;17.59;78.59
18581;DHT22;9420;50.876;7.012;2023-10-09T08:07:32;17.56;80.47
18581;DHT22;9420;50.876;7.012;2023-10-09T08:10:02;17.65;78.45
18581;DHT22;9420;50.876;7.012;2023-10-09T08:12:46;17.82;76.62
18581;DHT22;9420;50.876;7.012;2023-10-09T08:15:46;18.04;75.67
18581;DHT22;9420;50.876;7.012;2023-10-09T08:18:18;18.09;75.85
18581;DHT22;9420;50.876;7.012;2023-10-09T08:20:53;18.04;75.76
18581;DHT22;9420;50.876;7.012;2023-10-09T08:23:34;17.96;76.40
18581;DHT22;9420;50.876;7.012;2023-10-09T08:26:14;18.10;75.78
18581;DHT22;9420;50.876;7.012;2023-10-09T08:28:53;18.33;75.13
18581;DHT22;9420;50.876;7.012;2023-10-09T08:31:21;18.45;75.03
18581;DHT22;9420;50.876;7.012;2023-10-09T08:34:10;18.34;75.74
18581;DHT22;9420;50.876;7.012;2023-10-09T08:36:48;18.29;74.77
18581;DHT22;9420;50.876;7.012;2023-10-09T08:39:17;18.37;74.52
18581;DHT22;9420;50.876;7.012;2023-10-09T08:41:50;18.54;74.44
18581;DHT22;9420;50.876;7.012;2023-10-09T08:44:19;18.69;73.72
18581;DHT22;9420;50.876;7.012;2023-10-09T08:46:49;18.65;73.08
18581;DHT22;9420;50.876;7.012;2023-10-09T08:49:16;18.57;73.59
18581;DHT22;9420;50.876;7.012;2023-10-09T08:51:45;18.50;73.73
18581;DHT22;9420;50.876;7.012;2023-10-09T08:54:12;18.55;73.15
18581;DHT22;9420;50.876;7.012;2023-10-09T08:56:40;18.37;74.02
18581;DHT22;9420;50.876;7.012;2023-10-09T08:59:15;18.41;73.83
18581;DHT22;9420;50.876;7.012;2023-10-09T09:01:43;18.52;74.18
18581;DHT22;9420;50.876;7.012;2023-10-09T09:04:34;18.73;73.61
18581;DHT22;9420;50.876;7.012;2023-10-09T09:07:02;18.78;73.17
18581;DHT22;9420;50.876;7.012;2023-10-09T09:09:29;19.06;72.88
18581;DHT22;9420;50.876;7.012;2023-10-09T09:11:57;19.15;72.87
18581;DHT22;9420;50.876;7.012;2023-10-09T09:14:35;19.26;72.09
18581;DHT22;9420;50.876;7.012;2023-10-09T09:17:02;19.22;72.47
18581;DHT22;9420;50.876;7.012;2023-10-09T09:19:32;19.46;72.35
18581;DHT22;9420;50.876;7.012;2023-10-09T09:22:03;19.43;72.49
18581;DHT22;9420;50.876;7.012;2023-10-09T09:24:38;19.43;72.12
18581;DHT22;9420;50.876;7.012;2023-10-09T09:27:10;19.50;72.02
18581;DHT22;9420;50.876;7.012;2023-10-09T09:29:43;19.67;71.54
18581;DHT22;9420;50.876;7.012;2023-10-09T09:32:26;19.77;70.78
18581;DHT22;9420;50.876;7.012;2023-10-09T09:34:56;20.05;70.37
18581;DHT22;9420;50.876;7.012;2023-10-09T09:37:27;20.12;70.50
18581;DHT22;9420;50.876;7.012;2023-10-09T09:39:57;20.26;69.91
18581;DHT22;9420;50.876;7.012;2023-10-09T09:42:27;20.18;69.28
18581;DHT22;9420;50.876;7.012;2023-10-09T09:44:58;20.37;69.73
18581;DHT22;9420;50.876;7.012;2023-10-09T09:47:26;20.29;69.69
18581;DHT22;9420;50.876;7.012;2023-10-09T09:49:53;20.52;69.23
18581;DHT22;9420;50.876;7.012;2023-10-09T09:52:28;20.64;69.71
18581;DHT22;9420;50.876;7.012;2023-10-09T09:54:55;20.67;70.85
18581;DHT22;9420;50.876;7.012;2023-10-09T09:57:24;20.67;71.25
18581;DHT22;9420;50.876;7.012;2023-10-09T09:59:52;20.52;71.30
18581;DHT22;9420;50.876;7.012;2023-10-09T10:02:24;20.40;71.32
18581;DHT22;9420;50.876;7.012;2023-10-09T10:04:56;20.79;70.45
18581;DHT22;9420;50.876;7.012;2023-10-09T10:07:28;20.73;70.88
18581;DHT22;9420;50.876;7.012;2023-10-09T10:09:56;20.95;68.92
18581;DHT22;9420;50.876;7.012;2023-10-09T10:12:51;21.46;69.11
18581;DHT22;9420;50.876;7.012;2023-10-09T10:16:05;21.59;68.11
18581;DHT22;9420;50.876;7.012;2023-10-09T10:19:02;21.79;68.82
18581;DHT22;9420;50.876;7.012;2023-10-09T10:21:47;21.92;69.10
18581;DHT22;9420;50.876;7.012;2023-10-09T10:24:42;22.21;68.94
18581;DHT22;9420;50.876;7.012;2023-10-09T10:27:17;22.35;66.93
18581;DHT22;9420;50.876;7.012;2023-10-09T10:30:28;22.37;65.41
18581;DHT22;9420;50.876;7.012;2023-10-09T10:33:02;22.13;66.60
18581;DHT22;9420;50.876;7.012;2023-10-09T10:35:36;22.30;68.72
18581;DHT22;9420;50.876;7.012;2023-10-09T10:38:29;22.59;67.56
18581;DHT22;9420;50.876;7.012;2023-10-09T10:41:24;22.65;67.61
18581;DHT22;9420;50.876;7.012;2023-10-09T10:43:51;22.56;67.12
18581;DHT22;9420;50.876;7.012;2023-10-09T10:46:26;22.38;66.13
18581;DHT22;9420;50.876;7.012;2023-10-09T10:49:07;22.62;67.23
18581;DHT22;9420;50.876;7.012;2023-10-09T10:51:46;22.91;67.06
18581;DHT22;9420;50.876;7.012;2023-10-09T10:54:20;23.30;65.98
18581;DHT22;9420;50.876;7.012;2023-10-09T10:57:16;23.54;65.25
18581;DHT22;9420;50.876;7.012;2023-10-09T10:59:57;23.13;64.60
18581;DHT22;9420;50.876;7.012;2023-10-09T11:03:00;22.79;65.06
18581;DHT22;9420;50.876;7.012;2023-10-09T11:05:41;22.85;65.50
18581;DHT22;9420;50.876;7.012;2023-10-09T11:08:12;22.92;64.81
18581;DHT22;9420;50.876;7.012;2023-10-09T11:10:40;23.06;65.81
18581;DHT22;9420;50.876;7.012;2023-10-09T11:13:26;23.22;65.52
18581;DHT22;9420;50.876;7.012;2023-10-09T11:15:58;23.28;65.54
18581;DHT22;9420;50.876;7.012;2023-10-09T11:18:40;23.24;65.20
18581;DHT22;9420;50.876;7.012;2023-10-09T11:21:10;23.36;64.75
18581;DHT22;9420;50.876;7.012;2023-10-09T11:23:50;23.89;62.59
18581;DHT22;9420;50.876;7.012;2023-10-09T11:26:25;23.62;60.70
18581;DHT22;9420;50.876;7.012;2023-10-09T11:29:09;23.16;61.21
18581;DHT22;9420;50.876;7.012;2023-10-09T11:32:03;23.99;59.57
18581;DHT22;9420;50.876;7.012;2023-10-09T11:34:31;24.36;60.81
18581;DHT22;9420;50.876;7.012;2023-10-09T11:36:59;24.06;63.39
18581;DHT22;9420;50.876;7.012;2023-10-09T11:39:26;24.29;59.22
18581;DHT22;9420;50.876;7.012;2023-10-09T11:42:05;23.60;60.72
18581;DHT22;9420;50.876;7.012;2023-10-09T11:44:42;23.49;62.09
18581;DHT22;9420;50.876;7.012;2023-10-09T11:47:11;23.36;63.70
18581;DHT22;9420;50.876;7.012;2023-10-09T11:49:58;23.40;64.02
18581;DHT22;9420;50.876;7.012;2023-10-09T11:52:54;23.50;62.40
18581;DHT22;9420;50.876;7.012;2023-10-09T11:55:36;23.82;62.22
18581;DHT22;9420;50.876;7.012;2023-10-09T11:58:04;23.46;61.82
18581;DHT22;9420;50.876;7.012;2023-10-09T12:00:34;23.64;60.13
18581;DHT22;9420;50.876;7.012;2023-10-09T12:03:11;23.54;62.47
18581;DHT22;9420;50.876;7.012;2023-10-09T12:05:39;23.49;59.30
18581;DHT22;9420;50.876;7.012;2023-10-09T12:08:09;23.54;58.44
18581;DHT22;9420;50.876;7.012;2023-10-09T12:10:35;23.28;57.51
18581;DHT22;9420;50.876;7.012;2023-10-09T12:13:03;23.44;58.75
18581;DHT22;9420;50.876;7.012;2023-10-09T12:15:30;23.68;56.77
18581;DHT22;9420;50.876;7.012;2023-10-09T12:18:05;23.81;57.42
18581;DHT22;9420;50.876;7.012;2023-10-09T12:20:40;23.99;57.69
18581;DHT22;9420;50.876;7.012;2023-10-09T12:23:07;23.92;56.94
18581;DHT22;9420;50.876;7.012;2023-10-09T12:25:38;23.43;57.88
18581;DHT22;9420;50.876;7.012;2023-10-09T12:28:05;23.17;58.48
18581;DHT22;9420;50.876;7.012;2023-10-09T12:30:38;23.20;57.51
18581;DHT22;9420;50.876;7.012;2023-10-09T12:33:07;23.61;56.75
18581;DHT22;9420;50.876;7.012;2023-10-09T12:35:38;23.24;58.96
18581;DHT22;9420;50.876;7.012;2023-10-09T12:38:05;23.34;58.54
18581;DHT22;9420;50.876;7.012;2023-10-09T12:40:35;23.44;59.11
18581;DHT22;9420;50.876;7.012;2023-10-09T12:43:02;23.65;59.43
18581;DHT22;9420;50.876;7.012;2023-10-09T12:45:28;23.61;58.69
18581;DHT22;9420;50.876;7.012;2023-10-09T12:47:58;23.14;59.18
18581;DHT22;9420;50.876;7.012;2023-10-09T12:50:30;23.44;60.10
18581;DHT22;9420;50.876;7.012;2023-10-09T12:52:59;22.93;61.11
18581;DHT22;9420;50.876;7.012;2023-10-09T12:55:35;22.69;61.17
18581;DHT22;9420;50.876;7.012;2023-10-09T12:58:06;22.85;62.16
18581;DHT22;9420;50.876;7.012;2023-10-09T13:00:34;22.91;61.27
18581;DHT22;9420;50.876;7.012;2023-10-09T13:03:05;22.77;60.44
18581;DHT22;9420;50.876;7.012;2023-10-09T13:05:44;22.68;60.91
18581;DHT22;9420;50.876;7.012;2023-10-09T13:08:18;22.62;61.01
18581;DHT22;9420;50.876;7.012;2023-10-09T13:10:47;22.79;61.43
18581;DHT22;9420;50.876;7.012;2023-10-09T13:13:15;22.61;61.59
18581;DHT22;9420;50.876;7.012;2023-10-09T13:15:41;22.49;62.06
18581;DHT22;9420;50.876;7.012;2023-10-09T13:18:08;22.44;62.99
18581;DHT22;9420;50.876;7.012;2023-10-09T13:20:35;22.25;61.96
18581;DHT22;9420;50.876;7.012;2023-10-09T13:23:03;22.13;63.02
18581;DHT22;9420;50.876;7.012;2023-10-09T13:25:32;22.21;63.28
18581;DHT22;9420;50.876;7.012;2023-10-09T13:28:04;22.13;64.34
18581;DHT22;9420;50.876;7.012;2023-10-09T13:30:31;22.03;63.42
18581;DHT22;9420;50.876;7.012;2023-10-09T13:33:04;22.28;63.10
18581;DHT22;9420;50.876;7.012;2023-10-09T13:35:31;22.25;63.71
18581;DHT22;9420;50.876;7.012;2023-10-09T13:38:04;22.24;62.66
18581;DHT22;9420;50.876;7.012;2023-10-09T13:40:35;22.35;63.03
18581;DHT22;9420;50.876;7.012;2023-10-09T13:43:03;22.24;63.00
18581;DHT22;9420;50.876;7.012;2023-10-09T13:45:31;22.27;63.05
18581;DHT22;9420;50.876;7.012;2023-10-09T13:47:59;22.40;63.02
18581;DHT22;9420;50.876;7.012;2023-10-09T13:50:28;22.69;62.71
18581;DHT22;9420;50.876;7.012;2023-10-09T13:52:58;22.64;62.64
18581;DHT22;9420;50.876;7.012;2023-10-09T13:55:26;22.72;62.18
18581;DHT22;9420;50.876;7.012;2023-10-09T13:57:57;22.79;62.46
18581;DHT22;9420;50.876;7.012;2023-10-09T14:00:23;22.64;62.34
18581;DHT22;9420;50.876;7.012;2023-10-09T14:02:59;22.76;61.05
18581;DHT22;9420;50.876;7.012;2023-10-09T14:05:29;22.86;62.00
18581;DHT22;9420;50.876;7.012;2023-10-09T14:07:56;23.09;61.45
18581;DHT22;9420;50.876;7.012;2023-10-09T14:10:27;23.07;60.78
18581;DHT22;9420;50.876;7.012;2023-10-09T14:12:55;23.41;60.91
18581;DHT22;9420;50.876;7.012;2023-10-09T14:15:22;23.84;58.72
18581;DHT22;9420;50.876;7.012;2023-10-09T14:17:49;23.94;57.65
18581;DHT22;9420;50.876;7.012;2023-10-09T14:20:21;23.86;59.00
18581;DHT22;9420;50.876;7.012;2023-10-09T14:22:57;24.28;57.56
18581;DHT22;9420;50.876;7.012;2023-10-09T14:25:32;24.87;55.66
18581;DHT22;9420;50.876;7.012;2023-10-09T14:28:03;24.84;55.16
18581;DHT22;9420;50.876;7.012;2023-10-09T14:30:33;25.19;55.53
18581;DHT22;9420;50.876;7.012;2023-10-09T14:33:08;24.88;54.71
18581;DHT22;9420;50.876;7.012;2023-10-09T14:35:38;23.75;57.69
18581;DHT22;9420;50.876;7.012;2023-10-09T14:38:05;24.22;56.67
18581;DHT22;9420;50.876;7.012;2023-10-09T14:40:42;24.52;55.62
18581;DHT22;9420;50.876;7.012;2023-10-09T14:43:09;23.95;56.69
18581;DHT22;9420;50.876;7.012;2023-10-09T14:45:45;23.78;57.42
18581;DHT22;9420;50.876;7.012;2023-10-09T14:48:14;24.23;56.82
18581;DHT22;9420;50.876;7.012;2023-10-09T14:50:46;24.02;57.08
18581;DHT22;9420;50.876;7.012;2023-10-09T14:53:13;24.32;56.87
18581;DHT22;9420;50.876;7.012;2023-10-09T14:55:42;23.44;58.41
18581;DHT22;9420;50.876;7.012;2023-10-09T14:58:10;23.55;58.10
18581;DHT22;9420;50.876;7.012;2023-10-09T15:00:37;23.50;58.99
18581;DHT22;9420;50.876;7.012;2023-10-09T15:03:11;23.40;58.67
18581;DHT22;9420;50.876;7.012;2023-10-09T15:05:40;23.37;58.75
18581;DHT22;9420;50.876;7.012;2023-10-09T15:08:07;22.91;60.12
18581;DHT22;9420;50.876;7.012;2023-10-09T15:10:43;22.18;61.63
18581;DHT22;9420;50.876;7.012;2023-10-09T15:13:11;22.08;62.46
18581;DHT22;9420;50.876;7.012;2023-10-09T15:15:40;22.03;62.69
18581;DHT22;9420;50.876;7.012;2023-10-09T15:18:07;22.00;62.82
18581;DHT22;9420;50.876;7.012;2023-10-09T15:20:37;21.97;62.94
18581;DHT22;9420;50.876;7.012;2023-10-09T15:23:05;22.00;62.79
18581;DHT22;9420;50.876;7.012;2023-10-09T15:25:31;21.77;64.11
18581;DHT22;9420;50.876;7.012;2023-10-09T15:27:59;21.53;63.87
18581;DHT22;9420;50.876;7.012;2023-10-09T15:30:27;21.43;64.41
18581;DHT22;9420;50.876;7.012;2023-10-09T15:32:54;21.38;64.39
18581;DHT22;9420;50.876;7.012;2023-10-09T15:35:22;21.42;64.10
18581;DHT22;9420;50.876;7.012;2023-10-09T15:37:49;21.41;64.45
18581;DHT22;9420;50.876;7.012;2023-10-09T15:40:18;21.45;64.07
18581;DHT22;9420;50.876;7.012;2023-10-09T15:42:49;21.45;64.01
18581;DHT22;9420;50.876;7.012;2023-10-09T15:45:21;21.43;64.31
18581;DHT22;9420;50.876;7.012;2023-10-09T15:47:51;21.29;65.28
18581;DHT22;9420;50.876;7.012;2023-10-09T15:50:18;21.39;64.50
18581;DHT22;9420;50.876;7.012;2023-10-09T15:52:45;21.25;65.17
18581;DHT22;9420;50.876;7.012;2023-10-09T15:55:13;21.00;66.47
18581;DHT22;9420;50.876;7.012;2023-10-09T15:57:39;21.05;65.50
18581;DHT22;9420;50.876;7.012;2023-10-09T16:00:08;20.97;65.76
18581;DHT22;9420;50.876;7.012;2023-10-09T16:02:39;20.79;66.79
18581;DHT22;9420;50.876;7.012;2023-10-09T16:05:09;20.83;66.49
18581;DHT22;9420;50.876;7.012;2023-10-09T16:07:37;20.79;66.30
18581;DHT22;9420;50.876;7.012;2023-10-09T16:10:05;20.60;66.84
18581;DHT22;9420;50.876;7.012;2023-10-09T16:12:34;20.43;67.12
18581;DHT22;9420;50.876;7.012;2023-10-09T16:15:01;20.43;67.10
18581;DHT22;9420;50.876;7.012;2023-10-09T16:17:29;20.05;69.02
18581;DHT22;9420;50.876;7.012;2023-10-09T16:19:56;19.89;69.81
18581;DHT22;9420;50.876;7.012;2023-10-09T16:22:24;19.68;69.54